Time;durP1;ratioP1;P1;durP2;ratioP2;P2;SDS_P1;SDS_P2;PMS_P1;PMS_P2;Temp;Humidity;BMP_temperature;BMP_pressure;BME280_temperature;BME280_humidity;BME280_pressure;Samples;Min_cycle;Max_cycle;Signal;HPM_P1;HPM_P2
2022/06/24 00:00:53;;;;;;;;;;;;;;;23.43;43.65;101437.97;2075822;28;1304;-56
2022/06/24 00:02:02;;;;;;;;;;;;;;;23.44;43.72;101441.53;2075828;28;986;-56
2022/06/24 00:03:02;;;;;;;;;;;;;;;23.42;43.32;101444.31;2084637;28;981;-56
2022/06/24 00:04:02;;;;;;;;;;;;;;;23.43;44.04;101437.97;2084057;28;1138;-56
2022/06/24 00:05:06;;;;;;;;;;;;;;;23.43;43.74;101445.19;2075865;28;1275;-56
2022/06/24 00:06:16;;;;;;;;;;;;;;;23.41;43.88;101442.56;2076136;28;1022;-56
2022/06/24 00:07:16;;;;;;;;;;;;;;;23.41;43.93;101445.25;2084572;28;858;-56
2022/06/24 00:08:17;;;;;;;;;;;;;;;23.41;44.09;101441.66;2075679;28;942;-56
2022/06/24 00:09:17;;;;;;;;;;;;;;;23.39;44.39;101441.72;2075798;28;902;-55
2022/06/24 00:10:21;;;;;;;;;;;;;;;23.41;44.03;101438.94;2084490;28;985;-56
2022/06/24 00:11:22;;;;;;;;;;;;;;;23.41;44.28;101439.84;2084503;28;1060;-56
2022/06/24 00:12:26;;;;;;;;;;;;;;;23.41;44.10;101444.34;2084533;28;831;-56
2022/06/24 00:13:37;;;;;;;;;;;;;;;23.39;44.84;101436.31;2084484;28;780;-56
2022/06/24 00:14:38;;;;;;;;;;;;;;;23.40;44.87;101438.09;2084505;28;942;-55
2022/06/24 00:15:39;;;;;;;;;;;;;;;23.38;45.26;101438.13;2084487;28;1027;-56
2022/06/24 00:16:53;;;;;;;;;;;;;;;23.40;45.95;101440.78;2084487;28;780;-56
2022/06/24 00:17:53;;;;;;;;;;;;;;;23.39;46.00;101442.59;2084260;28;1898;-56
2022/06/24 00:19:10;;;;;;;;;;;;;;;23.39;46.21;101439.03;2084495;28;923;-56
2022/06/24 00:20:15;;;;;;;;;;;;;;;23.40;46.10;101443.50;2084457;28;1094;-56
2022/06/24 00:21:16;;;;;;;;;;;;;;;23.39;46.60;101447.13;2084489;28;787;-56
2022/06/24 00:22:16;;;;;;;;;;;;;;;23.37;47.18;101441.75;2075588;28;784;-56
2022/06/24 00:23:17;;;;;;;;;;;;;;;23.38;46.48;101440.81;2067585;28;763;-56
2022/06/24 00:24:21;;;;;;;;;;;;;;;23.37;47.39;101439.06;2067726;28;1333;-56
2022/06/24 00:25:22;;;;;;;;;;;;;;;23.37;46.89;101438.19;2076060;28;827;-56
2022/06/24 00:26:37;;;;;;;;;;;;;;;23.37;47.46;101440.91;2084428;28;918;-56
2022/06/24 00:27:37;;;;;;;;;;;;;;;23.36;47.05;101439.13;2084457;28;803;-56
2022/06/24 00:28:38;;;;;;;;;;;;;;;23.34;47.78;101435.59;2084155;28;1191;-56
2022/06/24 00:29:38;;;;;;;;;;;;;;;23.33;47.72;101440.09;2084385;28;779;-56
2022/06/24 00:30:39;;;;;;;;;;;;;;;23.32;47.99;101435.63;2083813;28;1071;-56
2022/06/24 00:31:39;;;;;;;;;;;;;;;23.32;48.08;101434.78;2084411;28;815;-56
2022/06/24 00:32:41;;;;;;;;;;;;;;;23.32;48.20;101437.47;2084368;28;855;-56
2022/06/24 00:33:46;;;;;;;;;;;;;;;23.32;48.07;101434.78;2084367;28;799;-56
2022/06/24 00:34:46;;;;;;;;;;;;;;;23.31;48.71;101431.16;2084365;28;867;-56
2022/06/24 00:35:47;;;;;;;;;;;;;;;23.32;48.54;101438.34;2084335;28;1023;-56
2022/06/24 00:36:47;;;;;;;;;;;;;;;23.32;48.55;101437.47;2084321;28;772;-56
2022/06/24 00:37:47;;;;;;;;;;;;;;;23.31;48.45;101438.41;2084286;28;1910;-56
2022/06/24 00:38:51;;;;;;;;;;;;;;;23.28;48.16;101435.81;2084318;28;776;-56
2022/06/24 00:39:56;;;;;;;;;;;;;;;23.27;48.74;101429.50;2084302;28;1160;-56
2022/06/24 00:41:01;;;;;;;;;;;;;;;23.30;48.39;101433.94;2084414;28;764;-56
2022/06/24 00:42:02;;;;;;;;;;;;;;;23.29;48.11;101426.75;2084320;28;978;-56
2022/06/24 00:43:02;;;;;;;;;;;;;;;23.30;48.79;101434.81;2084220;28;994;-56
2022/06/24 00:44:03;;;;;;;;;;;;;;;23.28;48.18;101433.97;2083733;28;1024;-56
2022/06/24 00:45:16;;;;;;;;;;;;;;;23.28;48.73;101433.97;2084296;28;890;-56
2022/06/24 00:46:18;;;;;;;;;;;;;;;23.25;48.31;101428.72;2084301;28;1005;-56
2022/06/24 00:47:20;;;;;;;;;;;;;;;23.24;48.66;101438.63;2084282;28;1044;-56
2022/06/24 00:48:21;;;;;;;;;;;;;;;23.21;48.30;101436.00;2084243;28;876;-56
2022/06/24 00:49:26;;;;;;;;;;;;;;;23.21;48.13;101432.44;2084222;28;847;-56
2022/06/24 00:50:28;;;;;;;;;;;;;;;23.16;47.52;101434.41;2084230;28;858;-56
2022/06/24 00:51:38;;;;;;;;;;;;;;;23.15;48.04;101440.75;2084216;28;1056;-56
2022/06/24 00:52:39;;;;;;;;;;;;;;;23.14;46.85;101438.97;2084281;28;865;-56
2022/06/24 00:53:43;;;;;;;;;;;;;;;23.12;47.25;101444.41;2084161;28;823;-56
2022/06/24 00:54:44;;;;;;;;;;;;;;;23.10;46.43;101435.47;2084210;28;843;-56
2022/06/24 00:55:46;;;;;;;;;;;;;;;23.09;46.58;101434.63;2084140;28;981;-56
2022/06/24 00:56:46;;;;;;;;;;;;;;;23.08;45.81;101435.56;2083652;28;1106;-56
2022/06/24 00:57:46;;;;;;;;;;;;;;;23.07;45.44;101435.59;2084074;28;1882;-57
2022/06/24 00:58:53;;;;;;;;;;;;;;;23.06;45.24;101436.53;2084153;28;981;-56
2022/06/24 00:59:54;;;;;;;;;;;;;;;23.03;45.53;101442.94;2075326;28;1157;-56
2022/06/24 01:00:55;;;;;;;;;;;;;;;23.03;45.42;101444.72;2075425;28;874;-56
2022/06/24 01:01:55;;;;;;;;;;;;;;;23.03;44.37;101445.63;2084149;28;902;-56
2022/06/24 01:03:03;;;;;;;;;;;;;;;23.03;44.25;101442.03;2075286;28;1333;-56
2022/06/24 01:04:07;;;;;;;;;;;;;;;23.01;44.06;101442.09;2076335;28;1143;-56
2022/06/24 01:05:08;;;;;;;;;;;;;;;23.02;44.26;101442.97;2084115;28;815;-56
2022/06/24 01:06:09;;;;;;;;;;;;;;;23.02;43.73;101446.56;2084122;28;800;-56
2022/06/24 01:07:09;;;;;;;;;;;;;;;23.03;43.38;101444.72;2074973;28;1176;-56
2022/06/24 01:08:10;;;;;;;;;;;;;;;23.03;43.98;101444.72;2075301;28;851;-56
2022/06/24 01:09:11;;;;;;;;;;;;;;;23.02;43.96;101442.97;2084053;28;914;-56
2022/06/24 01:10:11;;;;;;;;;;;;;;;23.02;43.19;101437.56;2083546;28;1001;-57
2022/06/24 01:11:12;;;;;;;;;;;;;;;23.01;43.27;101442.09;2075396;28;721;-57
2022/06/24 01:12:12;;;;;;;;;;;;;;;23.01;43.93;101436.69;2075310;28;843;-56
2022/06/24 01:13:12;;;;;;;;;;;;;;;23.01;43.34;101439.41;2075223;28;1244;-56
2022/06/24 01:14:13;;;;;;;;;;;;;;;23.00;43.79;101444.84;2075336;28;977;-56
2022/06/24 01:15:13;;;;;;;;;;;;;;;23.01;43.58;101438.50;2084013;28;990;-56
2022/06/24 01:16:13;;;;;;;;;;;;;;;23.03;43.20;101447.44;2075180;28;1296;-57
2022/06/24 01:17:13;;;;;;;;;;;;;;;23.02;43.98;101442.97;2075206;28;1890;-56
2022/06/24 01:18:13;;;;;;;;;;;;;;;23.01;43.95;101452.91;2083944;28;844;-56
2022/06/24 01:19:14;;;;;;;;;;;;;;;23.03;43.79;101450.13;2075173;28;1083;-56
2022/06/24 01:20:14;;;;;;;;;;;;;;;23.04;43.32;101446.50;2075221;28;855;-57
2022/06/24 01:21:29;;;;;;;;;;;;;;;23.05;43.54;101453.66;2083911;28;989;-56
2022/06/24 01:22:29;;;;;;;;;;;;;;;23.03;44.26;101450.13;2084038;28;871;-56
2022/06/24 01:23:29;;;;;;;;;;;;;;;23.03;43.47;101442.94;2083421;28;1017;-57
2022/06/24 01:24:29;;;;;;;;;;;;;;;23.02;44.48;101435.75;2075114;28;1484;-57
2022/06/24 01:25:30;;;;;;;;;;;;;;;23.03;44.00;101450.13;2075170;28;688;-56
2022/06/24 01:26:30;;;;;;;;;;;;;;;23.03;44.34;101447.44;2075059;28;1207;-57
2022/06/24 01:27:30;;;;;;;;;;;;;;;23.04;44.61;101451.91;2075172;28;927;-56
2022/06/24 01:28:30;;;;;;;;;;;;;;;23.02;44.17;101453.78;2083720;28;1170;-57
2022/06/24 01:29:30;;;;;;;;;;;;;;;23.02;44.02;101459.19;2075076;28;1149;-57
2022/06/24 01:30:31;;;;;;;;;;;;;;;23.02;44.17;101461.88;2075204;28;827;-56
2022/06/24 01:31:31;;;;;;;;;;;;;;;23.01;43.96;101460.09;2083862;28;973;-50
2022/06/24 01:32:33;;;;;;;;;;;;;;;23.01;44.12;101463.72;2083915;28;984;-50
2022/06/24 01:33:33;;;;;;;;;;;;;;;23.02;44.44;101461.88;2083925;28;953;-49
2022/06/24 01:34:33;;;;;;;;;;;;;;;23.01;44.46;101465.50;2075061;28;843;-50
2022/06/24 01:35:34;;;;;;;;;;;;;;;23.02;45.10;101459.19;2075117;28;997;-50
2022/06/24 01:36:34;;;;;;;;;;;;;;;23.01;45.32;101455.59;2083283;28;1082;-50
2022/06/24 01:37:35;;;;;;;;;;;;;;;23.01;45.13;101462.81;2083730;28;1910;-51
2022/06/24 01:38:35;;;;;;;;;;;;;;;23.01;45.36;101460.09;2083893;28;827;-49
2022/06/24 01:39:35;;;;;;;;;;;;;;;23.01;45.05;101463.72;2083831;28;926;-50
2022/06/24 01:40:35;;;;;;;;;;;;;;;23.01;45.21;101460.09;2074943;28;957;-49
2022/06/24 01:41:35;;;;;;;;;;;;;;;23.02;44.81;101465.47;2075073;28;775;-49
2022/06/24 01:42:35;;;;;;;;;;;;;;;23.01;44.83;101463.72;2083712;28;866;-49
2022/06/24 01:43:36;;;;;;;;;;;;;;;23.01;44.70;101461.00;2083815;28;977;-50
2022/06/24 01:44:36;;;;;;;;;;;;;;;23.01;45.46;101465.50;2083792;28;1005;-49
2022/06/24 01:45:36;;;;;;;;;;;;;;;23.01;45.42;101460.09;2083817;28;780;-49
2022/06/24 01:46:36;;;;;;;;;;;;;;;23.01;44.99;101461.00;2083800;28;989;-51
2022/06/24 01:47:36;;;;;;;;;;;;;;;23.00;45.36;101467.34;2083834;28;938;-49
2022/06/24 01:48:37;;;;;;;;;;;;;;;23.00;45.32;101461.94;2083782;28;938;-49
2022/06/24 01:49:37;;;;;;;;;;;;;;;23.00;45.11;101461.94;2074330;28;1012;-50
2022/06/24 01:50:37;;;;;;;;;;;;;;;23.00;45.53;101461.03;2074990;28;973;-49
2022/06/24 01:51:39;;;;;;;;;;;;;;;23.01;45.16;101460.09;2074787;28;1201;-50
2022/06/24 01:52:39;;;;;;;;;;;;;;;23.00;45.57;101452.94;2075101;28;1001;-48
2022/06/24 01:53:40;;;;;;;;;;;;;;;22.99;45.91;101460.19;2083748;28;1058;-50
2022/06/24 01:54:40;;;;;;;;;;;;;;;22.99;45.91;101459.28;2083690;28;768;-49
2022/06/24 01:55:40;;;;;;;;;;;;;;;22.98;45.28;101458.41;2083713;28;1056;-49
2022/06/24 01:56:40;;;;;;;;;;;;;;;22.99;44.76;101460.19;2083683;28;1048;-49
2022/06/24 01:57:40;;;;;;;;;;;;;;;22.97;44.42;101464.75;2083647;28;1886;-49
2022/06/24 01:58:40;;;;;;;;;;;;;;;22.97;44.92;101459.34;2083737;28;981;-50
2022/06/24 01:59:41;;;;;;;;;;;;;;;22.99;44.33;101467.38;2074825;28;783;-50
2022/06/24 02:00:41;;;;;;;;;;;;;;;22.98;44.04;101468.31;2074924;28;911;-49
2022/06/24 02:01:42;;;;;;;;;;;;;;;22.97;44.17;101466.56;2074734;28;985;-51
2022/06/24 02:02:42;;;;;;;;;;;;;;;22.96;43.70;101460.28;2074922;28;812;-50
2022/06/24 02:03:43;;;;;;;;;;;;;;;22.96;43.36;101460.28;2083148;28;1212;-51
2022/06/24 02:04:45;;;;;;;;;;;;;;;22.99;43.90;101470.09;2083639;28;768;-51
2022/06/24 02:05:46;;;;;;;;;;;;;;;22.98;43.15;101462.91;2074790;28;1340;-50
2022/06/24 02:06:46;;;;;;;;;;;;;;;22.98;43.41;101469.22;2074840;28;966;-49
2022/06/24 02:07:46;;;;;;;;;;;;;;;22.98;43.34;101463.81;2083626;28;752;-49
2022/06/24 02:08:46;;;;;;;;;;;;;;;22.99;43.19;101461.97;2083631;28;887;-50
2022/06/24 02:13:45;;;;;;;;;;;;;;;23.00;43.17;101474.56;2083741;28;630;-56
2022/06/24 02:14:45;;;;;;;;;;;;;;;23.00;42.74;101471.84;2083588;28;1048;-56
2022/06/24 02:15:46;;;;;;;;;;;;;;;23.00;43.04;101479.97;2083561;28;989;-56
2022/06/24 02:16:46;;;;;;;;;;;;;;;23.00;43.28;101474.56;2083001;28;988;-56
2022/06/24 02:17:46;;;;;;;;;;;;;;;23.00;42.79;101477.25;2083486;28;1882;-57
2022/06/24 02:18:47;;;;;;;;;;;;;;;23.00;43.38;101470.06;2082920;28;667;-57
2022/06/24 02:19:47;;;;;;;;;;;;;;;23.00;43.53;101471.84;2083503;28;933;-57
2022/06/24 02:20:48;;;;;;;;;;;;;;;22.99;42.86;101472.78;2083507;28;1032;-56
2022/06/24 02:21:48;;;;;;;;;;;;;;;23.00;43.58;101482.66;2074679;28;1378;-56
2022/06/24 02:22:48;;;;;;;;;;;;;;;22.99;43.30;101475.50;2074803;28;814;-56
2022/06/24 02:23:49;;;;;;;;;;;;;;;22.99;43.67;101471.00;2074731;28;910;-57
2022/06/24 02:24:49;;;;;;;;;;;;;;;23.00;43.74;101475.44;2074592;28;1021;-56
2022/06/24 02:25:50;;;;;;;;;;;;;;;22.99;43.82;101471.00;2083501;28;1009;-55
2022/06/24 02:26:50;;;;;;;;;;;;;;;23.00;43.89;101477.25;2083431;28;1009;-56
2022/06/24 02:27:50;;;;;;;;;;;;;;;23.00;44.02;101483.56;2074617;28;1051;-56
2022/06/24 02:28:51;;;;;;;;;;;;;;;22.99;43.78;101473.69;2074629;28;1218;-56
2022/06/24 02:29:51;;;;;;;;;;;;;;;23.00;43.57;101472.75;2082855;28;992;-56
2022/06/24 02:30:53;;;;;;;;;;;;;;;23.01;43.61;101473.63;2083528;28;1024;-56
2022/06/24 02:31:53;;;;;;;;;;;;;;;23.01;43.70;101476.31;2083450;28;799;-56
2022/06/24 02:32:53;;;;;;;;;;;;;;;23.00;44.18;101467.34;2083453;28;890;-57
2022/06/24 02:33:53;;;;;;;;;;;;;;;23.00;43.81;101474.56;2083532;28;994;-56
2022/06/24 02:34:53;;;;;;;;;;;;;;;23.00;44.48;101482.66;2074651;28;677;-57
2022/06/24 02:35:54;;;;;;;;;;;;;;;22.99;44.01;101481.78;2074695;28;815;-57
2022/06/24 02:36:54;;;;;;;;;;;;;;;23.00;44.46;101471.84;2083339;28;977;-56
2022/06/24 02:37:54;;;;;;;;;;;;;;;23.00;44.76;101474.56;2083241;28;1921;-56
2022/06/24 02:38:54;;;;;;;;;;;;;;;22.99;44.26;101472.78;2074541;28;1312;-56
2022/06/24 02:39:55;;;;;;;;;;;;;;;23.00;44.25;101472.75;2074614;28;914;-56
2022/06/24 02:40:55;;;;;;;;;;;;;;;23.02;45.10;101480.78;2083369;28;998;-57
2022/06/24 02:41:55;;;;;;;;;;;;;;;23.00;44.28;101478.16;2083313;28;1028;-57
2022/06/24 02:42:56;;;;;;;;;;;;;;;23.01;44.47;101479.03;2082809;28;996;-57
2022/06/24 02:43:56;;;;;;;;;;;;;;;22.99;44.70;101478.19;2083343;28;826;-57
2022/06/24 02:44:56;;;;;;;;;;;;;;;23.00;45.20;101477.25;2083348;28;985;-57
2022/06/24 02:46:01;;;;;;;;;;;;;;;22.99;44.55;101479.09;2083336;28;768;-57
2022/06/24 02:47:01;;;;;;;;;;;;;;;23.00;44.68;101477.25;2083339;28;768;-56
2022/06/24 02:48:01;;;;;;;;;;;;;;;23.00;45.29;101469.16;2083337;28;799;-56
2022/06/24 02:49:02;;;;;;;;;;;;;;;23.00;44.83;101474.56;2083284;28;978;-56
2022/06/24 02:50:02;;;;;;;;;;;;;;;23.00;45.19;101477.25;2083331;28;811;-56
2022/06/24 02:51:03;;;;;;;;;;;;;;;22.99;45.71;101475.50;2083299;28;918;-57
2022/06/24 02:52:06;;;;;;;;;;;;;;;22.99;45.22;101475.50;2083296;28;824;-57
2022/06/24 02:53:06;;;;;;;;;;;;;;;22.99;45.43;101478.19;2083298;28;1017;-56
2022/06/24 02:54:06;;;;;;;;;;;;;;;22.99;45.80;101475.50;2083280;28;791;-56
2022/06/24 02:55:06;;;;;;;;;;;;;;;22.99;45.77;101470.09;2083321;28;883;-57
2022/06/24 02:56:08;;;;;;;;;;;;;;;22.98;45.31;101468.31;2083264;28;880;-57
2022/06/24 02:57:08;;;;;;;;;;;;;;;22.99;45.58;101464.69;2082785;28;1004;-56
2022/06/24 02:58:08;;;;;;;;;;;;;;;22.99;46.06;101464.69;2083153;28;1961;-56
2022/06/24 02:59:08;;;;;;;;;;;;;;;22.99;46.72;101460.19;2083229;28;1045;-56
2022/06/24 03:00:08;;;;;;;;;;;;;;;22.99;46.54;101410.66;2083206;28;851;-56
2022/06/24 03:01:10;;;;;;;;;;;;;;;23.00;47.40;101420.53;2074385;28;1523;-56
2022/06/24 03:02:10;;;;;;;;;;;;;;;22.99;46.80;101422.34;2074580;28;895;-56
2022/06/24 03:03:14;;;;;;;;;;;;;;;22.99;47.15;101424.16;2083232;28;780;-57
2022/06/24 03:04:14;;;;;;;;;;;;;;;22.98;47.52;101425.09;2074413;28;1142;-56
2022/06/24 03:05:14;;;;;;;;;;;;;;;22.98;47.62;101403.47;2074524;28;856;-57
2022/06/24 03:06:15;;;;;;;;;;;;;;;22.97;48.18;101405.31;2083178;28;981;-57
2022/06/24 03:07:15;;;;;;;;;;;;;;;22.98;48.12;101441.31;2083225;28;793;-57
2022/06/24 03:08:16;;;;;;;;;;;;;;;22.99;48.68;101507.91;2083195;28;855;-57
2022/06/24 03:09:16;;;;;;;;;;;;;;;22.98;48.70;101479.13;2074513;28;934;-56
2022/06/24 03:10:17;;;;;;;;;;;;;;;22.97;48.54;101466.56;2073853;28;1115;-56
2022/06/24 03:11:17;;;;;;;;;;;;;;;22.95;49.21;101458.50;2083144;28;803;-56
2022/06/24 03:12:17;;;;;;;;;;;;;;;22.95;49.36;101462.13;2083180;28;895;-57
2022/06/24 03:13:17;;;;;;;;;;;;;;;22.96;48.83;101454.88;2083143;28;847;-57
2022/06/24 03:14:17;;;;;;;;;;;;;;;22.97;48.73;101461.16;2083414;28;784;-56
2022/06/24 03:15:18;;;;;;;;;;;;;;;22.95;49.02;101448.59;2083397;28;785;-57
2022/06/24 03:16:18;;;;;;;;;;;;;;;22.93;49.42;101445.06;2083097;28;1342;-56
2022/06/24 03:17:18;;;;;;;;;;;;;;;22.91;49.18;101449.66;2083087;28;1893;-57
2022/06/24 03:18:19;;;;;;;;;;;;;;;22.92;49.20;101458.63;2083157;28;823;-57
2022/06/24 03:19:19;;;;;;;;;;;;;;;22.91;49.57;101455.03;2083143;28;866;-57
2022/06/24 03:20:19;;;;;;;;;;;;;;;22.90;49.30;101453.28;2083156;28;676;-56
2022/06/24 03:21:19;;;;;;;;;;;;;;;22.87;48.92;101455.19;2083193;28;1036;-57
2022/06/24 03:22:19;;;;;;;;;;;;;;;22.87;48.56;101456.09;2083164;28;1028;-56
2022/06/24 03:23:19;;;;;;;;;;;;;;;22.86;48.60;101458.81;2082661;28;1304;-57
2022/06/24 03:24:20;;;;;;;;;;;;;;;22.84;48.25;101460.69;2083152;28;985;-57
2022/06/24 03:25:20;;;;;;;;;;;;;;;22.83;48.18;101457.13;2083085;28;976;-56
2022/06/24 03:26:20;;;;;;;;;;;;;;;22.83;47.79;101453.50;2074318;28;1005;-56
2022/06/24 03:27:20;;;;;;;;;;;;;;;22.82;47.48;101460.75;2074389;28;859;-57
2022/06/24 03:28:20;;;;;;;;;;;;;;;22.82;46.45;101452.66;2082915;28;1296;-57
2022/06/24 03:29:20;;;;;;;;;;;;;;;22.81;46.96;101461.69;2083152;28;976;-57
2022/06/24 03:30:20;;;;;;;;;;;;;;;22.81;45.84;101458.97;2084024;28;989;-57
2022/06/24 03:31:21;;;;;;;;;;;;;;;22.80;46.04;101439.19;2084847;28;780;-57
2022/06/24 03:32:21;;;;;;;;;;;;;;;22.79;46.08;101453.63;2084846;28;887;-57
2022/06/24 03:33:21;;;;;;;;;;;;;;;22.81;45.32;101456.28;2084884;28;921;-57
2022/06/24 03:34:21;;;;;;;;;;;;;;;22.82;45.43;101454.44;2084821;28;1052;-57
2022/06/24 03:35:21;;;;;;;;;;;;;;;22.82;45.08;101459.84;2084795;28;1037;-57
2022/06/24 03:36:22;;;;;;;;;;;;;;;22.81;44.59;101461.69;2084761;28;826;-57
2022/06/24 03:37:22;;;;;;;;;;;;;;;22.82;43.97;101463.44;2084149;28;1914;-57
2022/06/24 03:38:22;;;;;;;;;;;;;;;22.81;44.32;101461.69;2075988;28;871;-57
2022/06/24 03:39:22;;;;;;;;;;;;;;;22.81;44.21;101458.97;2076023;28;977;-56
2022/06/24 03:40:22;;;;;;;;;;;;;;;22.80;44.16;101459.91;2084716;28;853;-57
2022/06/24 03:41:23;;;;;;;;;;;;;;;22.81;43.46;101458.97;2084780;28;965;-57
2022/06/24 03:42:23;;;;;;;;;;;;;;;22.82;44.01;101457.16;2075942;28;807;-56
2022/06/24 03:43:23;;;;;;;;;;;;;;;22.82;43.25;101459.84;2075996;28;985;-57
2022/06/24 03:44:23;;;;;;;;;;;;;;;22.81;43.39;101450.88;2084704;28;780;-57
2022/06/24 03:45:23;;;;;;;;;;;;;;;22.82;43.41;101455.34;2084747;28;878;-57
2022/06/24 03:46:23;;;;;;;;;;;;;;;22.81;43.53;101456.28;2084847;28;918;-57
2022/06/24 03:47:24;;;;;;;;;;;;;;;22.82;43.89;101452.66;2084701;28;997;-56
2022/06/24 03:48:24;;;;;;;;;;;;;;;22.82;43.10;101446.34;2084740;28;768;-56
2022/06/24 03:49:24;;;;;;;;;;;;;;;22.81;43.67;101458.97;2084774;28;904;-56
2022/06/24 03:50:24;;;;;;;;;;;;;;;22.82;43.78;101451.75;2084128;28;1040;-56
2022/06/24 03:51:24;;;;;;;;;;;;;;;22.82;43.43;101454.44;2084699;28;830;-57
2022/06/24 03:52:24;;;;;;;;;;;;;;;22.81;43.95;101453.59;2075853;28;839;-57
2022/06/24 03:53:25;;;;;;;;;;;;;;;22.82;43.65;101455.34;2076060;28;937;-56
2022/06/24 03:54:25;;;;;;;;;;;;;;;22.80;43.79;101458.09;2084635;28;835;-57
2022/06/24 03:55:25;;;;;;;;;;;;;;;22.82;44.08;101457.16;2084717;28;847;-56
2022/06/24 03:56:25;;;;;;;;;;;;;;;22.81;44.05;101450.88;2075790;28;950;-57
2022/06/24 03:57:25;;;;;;;;;;;;;;;22.82;44.33;101449.03;2075827;28;1894;-56
2022/06/24 03:58:25;;;;;;;;;;;;;;;22.82;44.37;101446.34;2075733;28;938;-57
2022/06/24 03:59:26;;;;;;;;;;;;;;;22.82;44.38;101449.94;2075839;28;783;-57
2022/06/24 04:00:26;;;;;;;;;;;;;;;22.82;43.73;101455.34;2075836;28;1401;-57
2022/06/24 04:01:26;;;;;;;;;;;;;;;22.83;44.53;101459.81;2075809;28;839;-57
2022/06/24 04:02:26;;;;;;;;;;;;;;;23.27;43.83;101458.38;2084501;28;887;-57
2022/06/24 04:03:26;;;;;;;;;;;;;;;24.26;41.44;101457.44;2084025;28;889;-57
2022/06/24 04:04:27;;;;;;;;;;;;;;;24.88;39.43;101454.97;2084622;28;775;-58
2022/06/24 04:05:27;;;;;;;;;;;;;;;25.35;38.50;101459.28;2084588;28;882;-58
2022/06/24 04:06:27;;;;;;;;;;;;;;;25.76;37.62;101455.69;2084555;28;1020;-58
2022/06/24 04:07:27;;;;;;;;;;;;;;;25.99;37.78;101456.44;2084560;28;986;-58
2022/06/24 04:08:28;;;;;;;;;;;;;;;26.22;36.96;101457.22;2084649;28;859;-58
2022/06/24 04:09:28;;;;;;;;;;;;;;;26.44;36.91;101454.34;2084597;28;847;-57
2022/06/24 04:10:28;;;;;;;;;;;;;;;26.55;36.74;101457.44;2075681;28;1017;-57
2022/06/24 04:11:28;;;;;;;;;;;;;;;26.56;36.43;101453.75;2075698;28;1168;-57
2022/06/24 04:12:28;;;;;;;;;;;;;;;26.75;36.46;101452.84;2075777;28;890;-57
2022/06/24 04:13:29;;;;;;;;;;;;;;;27.27;35.67;101448.44;2084476;28;969;-58
2022/06/24 04:15:49;;;;;;;;;;;;;;;27.57;35.47;101440.50;2084578;28;689;-57
2022/06/24 04:16:50;;;;;;;;;;;;;;;27.60;35.14;101444.91;2084027;28;1030;-57
2022/06/24 04:17:50;;;;;;;;;;;;;;;27.80;34.71;101451.97;2084489;28;1957;-57
2022/06/24 04:18:50;;;;;;;;;;;;;;;27.75;35.29;101446.78;2084455;28;914;-57
2022/06/24 04:19:52;;;;;;;;;;;;;;;27.95;34.40;101442.97;2084468;28;795;-57
2022/06/24 04:20:53;;;;;;;;;;;;;;;28.12;33.56;101452.06;2084469;28;838;-57
2022/06/24 04:21:53;;;;;;;;;;;;;;;27.80;33.82;101438.34;2084484;28;922;-57
2022/06/24 04:22:53;;;;;;;;;;;;;;;28.22;33.45;101449.69;2084400;28;1032;-57
2022/06/24 04:23:53;;;;;;;;;;;;;;;28.28;32.86;101443.00;2084449;28;1044;-57
2022/06/24 04:24:53;;;;;;;;;;;;;;;28.23;32.76;101435.09;2084445;28;771;-58
2022/06/24 04:25:53;;;;;;;;;;;;;;;28.12;32.29;101443.91;2084450;28;647;-57
2022/06/24 04:26:53;;;;;;;;;;;;;;;28.09;32.90;101435.88;2084417;28;997;-57
2022/06/24 04:27:54;;;;;;;;;;;;;;;28.56;32.21;101436.84;2084392;28;985;-57
2022/06/24 04:28:54;;;;;;;;;;;;;;;28.79;31.67;101443.72;2084271;28;1062;-57
2022/06/24 04:29:57;;;;;;;;;;;;;;;28.91;31.53;101443.94;2084391;28;756;-58
2022/06/24 04:30:57;;;;;;;;;;;;;;;28.81;31.91;101444.50;2083823;28;889;-57
2022/06/24 04:31:58;;;;;;;;;;;;;;;29.03;31.10;101447.78;2084392;28;863;-57
2022/06/24 04:32:58;;;;;;;;;;;;;;;29.02;30.85;101449.63;2084339;28;977;-57
2022/06/24 04:33:58;;;;;;;;;;;;;;;29.04;30.97;101453.13;2075496;28;1014;-57
2022/06/24 04:34:58;;;;;;;;;;;;;;;29.39;30.18;101452.00;2075606;28;740;-57
2022/06/24 04:35:58;;;;;;;;;;;;;;;29.57;29.89;101455.41;2084228;28;768;-57
2022/06/24 04:36:58;;;;;;;;;;;;;;;29.29;30.46;101452.53;2084291;28;1036;-57
2022/06/24 04:37:59;;;;;;;;;;;;;;;29.81;30.19;101444.81;2084159;28;1918;-57
2022/06/24 04:38:59;;;;;;;;;;;;;;;29.64;30.08;101453.22;2084311;28;1040;-57
2022/06/24 04:40:00;;;;;;;;;;;;;;;30.18;29.32;101441.59;2084268;28;959;-57
2022/06/24 04:41:00;;;;;;;;;;;;;;;29.77;29.93;101450.56;2084360;28;823;-57
2022/06/24 04:42:00;;;;;;;;;;;;;;;29.53;30.19;101445.66;2083657;28;1073;-57
2022/06/24 04:43:00;;;;;;;;;;;;;;;29.70;29.94;101453.69;2084278;28;867;-57
2022/06/24 04:44:00;;;;;;;;;;;;;;;29.69;30.23;101456.53;2083773;28;914;-57
2022/06/24 04:45:01;;;;;;;;;;;;;;;29.99;28.97;101451.00;2084265;28;982;-57
2022/06/24 04:46:01;;;;;;;;;;;;;;;29.61;30.00;101461.59;2084279;28;982;-57
2022/06/24 04:47:01;;;;;;;;;;;;;;;29.50;30.11;101463.13;2084274;28;811;-57
2022/06/24 04:48:02;;;;;;;;;;;;;;;29.76;30.15;101462.47;2084255;28;862;-57
2022/06/24 04:49:02;;;;;;;;;;;;;;;29.91;30.11;101466.97;2084213;28;776;-57
2022/06/24 04:50:03;;;;;;;;;;;;;;;30.20;29.13;101457.88;2084235;28;811;-57
2022/06/24 04:51:03;;;;;;;;;;;;;;;30.30;29.04;101459.06;2084216;28;1097;-57
2022/06/24 04:52:04;;;;;;;;;;;;;;;30.24;29.68;101453.97;2084201;28;836;-57
2022/06/24 04:53:05;;;;;;;;;;;;;;;29.91;29.77;101457.88;2084387;28;886;-57
2022/06/24 04:54:05;;;;;;;;;;;;;;;29.97;29.79;101469.31;2084174;28;985;-56
2022/06/24 04:55:05;;;;;;;;;;;;;;;30.23;29.79;101458.56;2084239;28;823;-57
2022/06/24 04:56:06;;;;;;;;;;;;;;;30.41;29.09;101461.06;2084178;28;969;-57
2022/06/24 04:57:06;;;;;;;;;;;;;;;30.38;29.16;101462.13;2084205;28;859;-57
2022/06/24 04:58:06;;;;;;;;;;;;;;;30.24;29.38;101459.44;2083603;28;1890;-57
2022/06/24 04:59:06;;;;;;;;;;;;;;;29.91;30.29;101468.78;2084187;28;981;-57
2022/06/24 05:00:09;;;;;;;;;;;;;;;30.09;30.37;101472.22;2084114;28;827;-57
2022/06/24 05:01:09;;;;;;;;;;;;;;;30.56;30.10;101460.06;2084129;28;799;-57
2022/06/24 05:02:09;;;;;;;;;;;;;;;30.76;29.39;101460.56;2084165;28;997;-57
2022/06/24 05:03:09;;;;;;;;;;;;;;;30.46;29.41;101465.22;2075300;28;958;-57
2022/06/24 05:04:09;;;;;;;;;;;;;;;30.40;29.53;101468.38;2075382;28;783;-57
2022/06/24 05:05:11;;;;;;;;;;;;;;;30.64;29.18;101473.22;2084129;28;784;-57
2022/06/24 05:06:11;;;;;;;;;;;;;;;30.56;29.94;101470.97;2084088;28;796;-57
2022/06/24 05:07:11;;;;;;;;;;;;;;;30.31;29.52;101464.41;2084070;28;890;-57
2022/06/24 05:08:11;;;;;;;;;;;;;;;30.52;30.03;101465.81;2084079;28;1029;-57
2022/06/24 05:09:11;;;;;;;;;;;;;;;30.48;29.76;101465.16;2075262;28;946;-56
2022/06/24 05:10:11;;;;;;;;;;;;;;;30.34;29.58;101451.50;2075276;28;958;-57
2022/06/24 05:11:12;;;;;;;;;;;;;;;30.35;29.77;101453.25;2074780;28;866;-57
2022/06/24 05:12:12;;;;;;;;;;;;;;;30.24;30.17;101463.03;2084079;28;855;-57
2022/06/24 05:13:12;;;;;;;;;;;;;;;30.75;29.44;101461.56;2084084;28;846;-57
2022/06/24 05:14:13;;;;;;;;;;;;;;;30.41;30.01;101458.31;2084209;28;763;-57
2022/06/24 05:15:13;;;;;;;;;;;;;;;30.29;31.03;101455.41;2084092;28;768;-57
2022/06/24 05:16:13;;;;;;;;;;;;;;;30.98;30.78;101454.50;2075209;28;887;-56
2022/06/24 05:17:13;;;;;;;;;;;;;;;30.73;31.44;101449.84;2075261;28;830;-57
2022/06/24 05:18:13;;;;;;;;;;;;;;;30.54;31.79;101448.34;2075328;28;1907;-57
2022/06/24 05:19:13;;;;;;;;;;;;;;;30.82;31.71;101454.69;2083267;28;954;-57
2022/06/24 05:20:14;;;;;;;;;;;;;;;31.13;30.89;101447.13;2083460;28;723;-57
2022/06/24 05:21:14;;;;;;;;;;;;;;;31.37;31.04;101451.88;2084018;28;791;-57
2022/06/24 05:22:14;;;;;;;;;;;;;;;31.27;30.73;101453.50;2075167;28;893;-57
2022/06/24 05:23:14;;;;;;;;;;;;;;;30.80;32.81;101444.84;2075153;28;1316;-57
2022/06/24 05:24:14;;;;;;;;;;;;;;;30.71;31.76;101449.97;2075192;28;854;-57
2022/06/24 05:25:14;;;;;;;;;;;;;;;30.63;31.93;101459.66;2083407;28;965;-57